createdAt,value
2018-07-03T00:02:15.013Z,95.90
2018-07-03T00:06:49.494Z,96.30
2018-07-03T00:11:23.941Z,96.60
2018-07-03T00:15:58.348Z,97.20
2018-07-03T00:20:32.766Z,97.30
2018-07-03T00:25:07.289Z,97.40
2018-07-03T00:29:42.100Z,97.40
2018-07-03T00:34:16.556Z,97.40
2018-07-03T00:38:50.918Z,97.90
2018-07-03T00:43:25.541Z,98.30
2018-07-03T00:48:00.649Z,98.20
2018-07-03T00:52:34.882Z,98.30
2018-07-03T00:57:09.232Z,98.40
2018-07-03T01:01:43.618Z,98.60
2018-07-03T01:06:17.949Z,98.60
2018-07-03T01:10:52.437Z,98.70
2018-07-03T01:15:27.937Z,98.90
2018-07-03T01:20:02.200Z,99.10
2018-07-03T01:24:36.769Z,99.20
2018-07-03T01:29:11.253Z,99.60
2018-07-03T01:33:45.806Z,99.50
2018-07-03T01:38:20.972Z,99.40
2018-07-03T01:42:55.379Z,99.40
2018-07-03T01:47:29.657Z,99.80
2018-07-03T01:52:04.166Z,99.80
2018-07-03T01:56:38.766Z,99.80
2018-07-03T02:01:13.382Z,99.80
2018-07-03T02:05:47.820Z,99.80
2018-07-03T02:10:22.350Z,99.90
2018-07-03T02:14:56.750Z,99.90
2018-07-03T02:19:31.218Z,99.90
2018-07-03T02:24:06.168Z,99.90
2018-07-03T02:28:40.607Z,99.90
2018-07-03T02:33:15.403Z,99.90
2018-07-03T02:37:49.650Z,99.90
2018-07-03T02:42:24.025Z,99.90
2018-07-03T02:46:58.476Z,99.90
2018-07-03T02:51:33.023Z,99.90
2018-07-03T02:56:08.062Z,99.90
2018-07-03T03:00:42.399Z,99.90
2018-07-03T03:05:16.937Z,99.90
2018-07-03T03:09:51.376Z,99.90
2018-07-03T03:14:25.813Z,99.90
2018-07-03T03:19:00.599Z,99.90
2018-07-03T03:23:34.853Z,99.90
2018-07-03T03:32:43.054Z,99.90
2018-07-03T03:37:17.254Z,99.90
2018-07-03T03:41:51.926Z,99.90
2018-07-03T03:46:26.233Z,99.90
2018-07-03T03:51:00.869Z,99.90
2018-07-03T03:55:35.075Z,99.90
2018-07-03T04:00:10.758Z,99.90
2018-07-03T04:04:45.277Z,99.90
2018-07-03T04:13:53.682Z,99.90
2018-07-03T04:18:32.380Z,99.90
2018-07-03T04:23:07.005Z,99.90
2018-07-03T04:27:41.520Z,99.90
2018-07-03T04:32:15.937Z,99.90
2018-07-03T04:36:50.135Z,99.90
2018-07-03T04:41:24.733Z,99.90
2018-07-03T04:45:59.239Z,99.90
2018-07-03T04:50:33.634Z,99.90
2018-07-03T04:55:08.201Z,99.90
2018-07-03T04:59:43.200Z,99.90
2018-07-03T05:04:17.429Z,99.90
2018-07-03T05:08:51.717Z,99.90
2018-07-03T05:13:25.949Z,99.90
2018-07-03T05:18:00.554Z,99.90
2018-07-03T05:22:34.950Z,99.90
2018-07-03T05:27:09.440Z,99.90
2018-07-03T05:31:43.702Z,99.90
2018-07-03T05:40:52.574Z,99.90
2018-07-03T05:45:26.818Z,99.80
2018-07-03T05:50:01.171Z,99.40
2018-07-03T05:59:09.481Z,97.40
2018-07-03T06:03:44.007Z,95.80
2018-07-03T06:08:18.266Z,95.80
2018-07-03T06:12:52.867Z,95.00
2018-07-03T06:17:39.814Z,92.10
2018-07-03T06:22:14.361Z,90.50
2018-07-03T06:26:49.013Z,88.30
2018-07-03T06:31:23.837Z,86.80
2018-07-03T06:35:58.233Z,83.60
2018-07-03T06:40:32.988Z,82.40
2018-07-03T06:45:07.834Z,79.90
2018-07-03T06:49:42.151Z,78.00
2018-07-03T06:54:16.493Z,77.30
2018-07-03T06:58:50.884Z,74.40
2018-07-03T07:03:25.417Z,73.10
2018-07-03T07:07:59.901Z,72.90
2018-07-03T07:12:34.157Z,70.70
2018-07-03T07:17:08.773Z,69.80
2018-07-03T07:21:43.134Z,67.30
2018-07-03T07:26:17.997Z,67.20
2018-07-03T07:30:52.509Z,66.60
2018-07-03T07:35:26.979Z,66.30
2018-07-03T07:40:01.313Z,63.50
2018-07-03T07:44:36.185Z,63.00
2018-07-03T07:49:10.566Z,59.50
2018-07-03T07:53:44.946Z,58.50
2018-07-03T07:58:19.357Z,56.50
2018-07-03T08:02:53.906Z,56.40
2018-07-03T08:07:29.546Z,56.60
2018-07-03T08:12:03.918Z,56.50
2018-07-03T08:16:38.669Z,55.20
2018-07-03T08:21:13.295Z,54.70
2018-07-03T08:25:47.717Z,54.00
2018-07-03T08:30:22.221Z,52.10
2018-07-03T08:34:56.729Z,50.30
2018-07-03T08:39:31.610Z,49.30
2018-07-03T08:44:05.891Z,46.90
2018-07-03T08:48:40.872Z,44.70
2018-07-03T08:53:15.316Z,44.10
2018-07-03T08:57:49.758Z,42.20
2018-07-03T09:02:24.281Z,41.30
2018-07-03T09:06:59.014Z,39.00
2018-07-03T09:11:33.942Z,36.60
2018-07-03T09:16:08.513Z,36.10
2018-07-03T09:20:42.825Z,34.10
2018-07-03T09:25:17.193Z,31.70
2018-07-03T09:29:51.633Z,31.00
2018-07-03T09:34:26.160Z,30.70
2018-07-03T09:39:00.656Z,31.40
2018-07-03T09:43:35.106Z,32.20
2018-07-03T09:48:09.873Z,33.10
2018-07-03T09:52:44.848Z,33.10
2018-07-03T09:57:19.450Z,32.80
2018-07-03T10:01:53.969Z,34.30
2018-07-03T10:06:28.846Z,34.80
2018-07-03T10:11:03.339Z,35.20
2018-07-03T10:20:11.764Z,31.10
2018-07-03T10:24:46.377Z,30.80
2018-07-03T10:29:21.241Z,31.40
2018-07-03T10:33:56.081Z,32.50
2018-07-03T10:38:30.486Z,33.70
2018-07-03T10:43:04.733Z,34.80
2018-07-03T10:47:39.254Z,34.50
2018-07-03T10:52:13.594Z,35.70
2018-07-03T10:56:48.145Z,38.20
2018-07-03T11:01:22.628Z,37.50
2018-07-03T11:05:57.149Z,37.20
2018-07-03T11:10:31.658Z,35.60
2018-07-03T11:15:06.096Z,35.90
2018-07-03T11:19:41.301Z,33.00
2018-07-03T11:24:15.716Z,31.30
2018-07-03T11:28:50.147Z,31.10
2018-07-03T11:33:24.541Z,30.80
2018-07-03T11:37:58.857Z,30.20
2018-07-03T11:42:33.149Z,29.60
2018-07-03T11:47:08.364Z,27.90
2018-07-03T11:51:42.697Z,27.70
2018-07-03T11:56:17.049Z,27.80
2018-07-03T12:00:51.429Z,27.00
2018-07-03T12:05:25.829Z,26.80
2018-07-03T12:10:00.675Z,26.40
2018-07-03T12:14:35.181Z,26.70
2018-07-03T12:19:09.959Z,27.20
2018-07-03T12:23:44.389Z,26.80
2018-07-03T12:28:19.113Z,26.60
2018-07-03T12:32:53.645Z,26.80
2018-07-03T12:37:28.181Z,27.20
2018-07-03T12:42:02.418Z,26.60
2018-07-03T12:46:37.434Z,26.80
2018-07-03T12:51:11.885Z,27.30
2018-07-03T12:55:46.205Z,26.90
2018-07-03T13:00:20.434Z,27.20
2018-07-03T13:04:54.919Z,27.10
2018-07-03T13:09:29.461Z,27.00
2018-07-03T13:14:03.969Z,27.50
2018-07-03T13:18:38.300Z,27.80
2018-07-03T13:23:12.961Z,27.60
2018-07-03T13:27:47.405Z,27.50
2018-07-03T13:32:22.114Z,27.70
2018-07-03T13:36:56.758Z,28.30
2018-07-03T13:41:31.559Z,29.50
2018-07-03T13:46:06.123Z,29.90
2018-07-03T13:50:40.761Z,30.80
2018-07-03T13:55:15.189Z,31.70
2018-07-03T13:59:49.434Z,31.40
2018-07-03T14:04:23.982Z,30.60
2018-07-03T14:08:58.386Z,30.20
2018-07-03T14:13:32.599Z,30.70
2018-07-03T14:18:08.293Z,30.90
2018-07-03T14:22:42.773Z,31.00
2018-07-03T14:27:17.239Z,31.20
2018-07-03T14:31:51.657Z,31.90
2018-07-03T14:36:26.097Z,32.00
2018-07-03T14:41:00.606Z,34.00
2018-07-03T14:45:34.810Z,32.50
2018-07-03T14:50:09.158Z,33.40
2018-07-03T14:54:43.693Z,32.40
2018-07-03T14:59:18.154Z,32.30
2018-07-03T15:03:52.765Z,32.80
2018-07-03T15:08:27.164Z,33.70
2018-07-03T15:13:02.379Z,33.50
2018-07-03T15:17:36.668Z,33.90
2018-07-03T15:22:10.910Z,32.70
2018-07-03T15:26:45.806Z,33.10
2018-07-03T15:31:20.245Z,32.70
2018-07-03T15:35:54.601Z,32.50
2018-07-03T15:40:29.020Z,32.60
2018-07-03T15:45:11.346Z,32.80
2018-07-03T15:49:45.617Z,33.20
2018-07-03T15:54:20.573Z,33.10
2018-07-03T15:58:54.856Z,33.00
2018-07-03T16:05:43.273Z,32.50
2018-07-03T16:10:17.642Z,33.00
2018-07-03T16:14:51.905Z,32.90
2018-07-03T16:19:31.551Z,33.10
2018-07-03T16:24:06.229Z,34.80
2018-07-03T16:28:40.674Z,34.90
2018-07-03T16:33:15.218Z,35.80
2018-07-03T16:37:49.765Z,36.50
2018-07-03T16:42:24.038Z,36.80
2018-07-03T16:46:58.517Z,36.20
2018-07-03T16:51:33.041Z,37.00
2018-07-03T16:56:07.589Z,35.60
2018-07-03T17:00:42.017Z,36.10
2018-07-03T17:05:16.370Z,36.30
2018-07-03T17:09:50.730Z,37.50
2018-07-03T17:14:25.617Z,37.30
2018-07-03T17:19:05.289Z,38.30
2018-07-03T17:23:40.157Z,38.70
2018-07-03T17:28:14.627Z,37.30
2018-07-03T17:32:49.030Z,37.20
2018-07-03T17:37:23.534Z,37.00
2018-07-03T17:42:09.162Z,37.80
2018-07-03T17:46:44.377Z,37.70
2018-07-03T17:51:18.881Z,38.00
2018-07-03T17:55:54.205Z,37.20
2018-07-03T18:00:29.714Z,39.60
2018-07-03T18:05:04.079Z,41.30
2018-07-03T18:09:40.302Z,40.70
2018-07-03T18:14:14.802Z,41.10
2018-07-03T18:18:54.803Z,43.20
2018-07-03T18:23:29.322Z,48.80
2018-07-03T18:28:04.030Z,52.80
2018-07-03T18:32:38.785Z,54.60
2018-07-03T18:37:13.414Z,55.50
2018-07-03T18:41:47.989Z,58.40
2018-07-03T18:46:22.874Z,60.90
2018-07-03T18:50:57.241Z,61.80
2018-07-03T18:55:31.846Z,65.20
2018-07-03T19:04:40.250Z,69.30
2018-07-03T19:09:14.991Z,70.90
2018-07-03T19:13:49.581Z,73.40
2018-07-03T19:18:24.206Z,75.20
2018-07-03T19:22:58.642Z,76.50
2018-07-03T19:27:33.769Z,78.00
2018-07-03T19:32:07.997Z,79.60
2018-07-03T19:36:42.538Z,81.20
2018-07-03T19:41:17.151Z,82.80
2018-07-03T19:45:52.541Z,84.50
2018-07-03T19:50:27.964Z,86.70
2018-07-03T19:55:01.602Z,88.80
2018-07-03T19:59:36.372Z,90.30
2018-07-03T20:04:10.622Z,91.20
2018-07-03T20:08:45.149Z,91.80
2018-07-03T20:13:19.689Z,92.20
2018-07-03T20:17:54.304Z,92.70
2018-07-03T20:22:29.301Z,93.00
2018-07-03T20:27:04.500Z,92.70
2018-07-03T20:31:39.287Z,92.60
2018-07-03T20:36:13.621Z,92.90
2018-07-03T20:40:54.525Z,93.30
2018-07-03T20:45:28.884Z,93.60
2018-07-03T20:50:03.963Z,93.10
2018-07-03T20:54:38.367Z,93.30
2018-07-03T20:59:13.098Z,93.70
2018-07-03T21:03:47.708Z,94.10
2018-07-03T21:08:22.209Z,95.00
2018-07-03T21:12:57.668Z,95.30
2018-07-03T21:17:35.312Z,95.50
2018-07-03T21:22:09.924Z,95.70
2018-07-03T21:26:44.599Z,95.80
2018-07-03T21:31:18.830Z,96.20
2018-07-03T21:35:53.234Z,96.70
2018-07-03T21:40:27.582Z,96.70
2018-07-03T21:45:01.842Z,97.00
2018-07-03T21:49:36.301Z,97.50
2018-07-03T21:54:10.713Z,98.00
2018-07-03T21:58:45.154Z,98.20
2018-07-03T22:03:19.405Z,98.30
2018-07-03T22:07:53.637Z,98.50
2018-07-03T22:12:27.925Z,98.70
2018-07-03T22:17:02.177Z,98.80
2018-07-03T22:21:37.251Z,99.40
2018-07-03T22:26:11.837Z,99.30
2018-07-03T22:30:46.129Z,99.40
2018-07-03T22:35:20.337Z,99.30
2018-07-03T22:39:54.849Z,99.50
2018-07-03T22:44:29.275Z,99.90
2018-07-03T22:53:37.298Z,99.90
2018-07-03T22:58:11.913Z,99.90
2018-07-03T23:02:46.470Z,99.90
2018-07-03T23:07:20.834Z,99.90
2018-07-03T23:11:55.233Z,99.90
2018-07-03T23:16:29.553Z,99.90
2018-07-03T23:21:03.961Z,99.90
2018-07-03T23:25:38.280Z,99.90
2018-07-03T23:34:46.762Z,99.90
2018-07-03T23:39:21.322Z,99.90
2018-07-03T23:43:55.569Z,99.90
2018-07-03T23:48:40.965Z,99.90
2018-07-03T23:53:26.626Z,99.90
2018-07-03T23:58:12.158Z,99.90
